Bowman Field
KLOU : now visible

Airfield :











YOU CAN JOIN US ON...

 
LOGIN :

Register | Disclaimer

   EN    FR    IT 

 









Legend :    VFR   Marginal VFR   IFR   Intensive IFR   Very Intensive IFR
Visi :
Ceiling :
>= 8 km
>= 3000ft
5 to 8 km
1000 to 3000 ft
1500m to 5 km
500 to 1000 ft
800 to 1500m
200 to 500 ft
< 800m
< 200 ft
Symbols :   Thunderstorms  Fog  Heavy snow  Heavy precipitations  Wind > 20 kt






- Airport Elevation : 546 ft


KLOU - Bowman Field

CURRENT METAR :
  • 270453Z AUTO 30008G18KT 9SM FEW019 BKN032 OVC050 00/M04 A3010 RMK AO2 SLP197 T00001044 400830000

EXPIRED METARs :
  • 270353Z AUTO 29014G24KT 10SM FEW024 BKN041 OVC049 01/M04 A3009 RMK AO2 SLP191 T00061044
  • 270323Z AUTO 30013G21KT 10SM SCT024 SCT035 OVC046 01/M04 A3008 RMK AO2 T00061044
  • 270253Z AUTO 28013KT 10SM BKN024 OVC041 01/M04 A3008 RMK AO2 SLP188 60001 T00061039 51024
  • 270153Z 29013G24KT 10SM FEW021 BKN041 OVC049 01/M03 A3006 RMK AO2 SNE04 SLP181 P0000 T00061033

TAF N/A



MET'MAP, your aeronautical weather chart ! - Copyright ORBIFLY December 2007 - Disclaimer

ORBIFLY MET'MAP TEAM :

Programming & Development : Alexandra Zaïnal
Concept & original design : Baudouin d'Aumeries
Assistance for programming : Marc-Olivier Méhu
Technical & hardware support : Manuel Goepfert

Contact : metmap@orbifly.com




SOURCES & CREDITS :

   NOAA       Earth
Advisory